www.cux-wetter.de
Wetterdaten: Mittwoch, 24.09.2008
Datum Zeit Temp. A. Feuchte A. Luftdruck Regen Wind Richtung Richtung Sonnenschein Solar Taupunkt Windchill Windben
24.09.2008 00:00 13,6 C 89 % 1019,5 hPa 0,0 l/m 12,3 km/h (2 Bft) NO 35 0 min 0 W/m 11,8 C 10,5 C 12,3 km/h (2 Bft)
24.09.2008 00:05 13,5 C 89 % 1019,5 hPa 0,0 l/m 16,6 km/h (3 Bft) NO 45 0 min 0 W/m 11,7 C 8,8 C 16,6 km/h (3 Bft)
24.09.2008 00:10 13,5 C 89 % 1019,5 hPa 0,0 l/m 11,8 km/h (2 Bft) NO 55 0 min 0 W/m 11,7 C 10,6 C 11,8 km/h (2 Bft)
24.09.2008 00:15 13,5 C 89 % 1019,5 hPa 0,0 l/m 16,6 km/h (3 Bft) NO 55 0 min 0 W/m 11,7 C 8,8 C 16,6 km/h (3 Bft)
24.09.2008 00:19 13,5 C 89 % 1019,5 hPa 0,0 l/m 10,1 km/h (2 Bft) O 90 0 min 0 W/m 11,7 C 11,4 C 10,1 km/h (2 Bft)
24.09.2008 00:25 13,5 C 89 % 1019,5 hPa 0,0 l/m 14,6 km/h (3 Bft) NO 50 0 min 0 W/m 11,7 C 9,5 C 14,6 km/h (3 Bft)
24.09.2008 00:30 13,5 C 89 % 1019,5 hPa 0,0 l/m 17,1 km/h (3 Bft) O-NO 60 0 min 0 W/m 11,7 C 8,7 C 17,1 km/h (3 Bft)
24.09.2008 00:35 13,5 C 89 % 1019,5 hPa 0,0 l/m 18,1 km/h (3 Bft) O 80 0 min 0 W/m 11,7 C 8,4 C 18,1 km/h (3 Bft)
24.09.2008 00:40 13,5 C 89 % 1019,5 hPa 0,0 l/m 4,6 km/h (1 Bft) NO 50 0 min 0 W/m 11,7 C 13,5 C 4,6 km/h (1 Bft)
24.09.2008 00:45 13,5 C 89 % 1019,5 hPa 0,0 l/m 18,8 km/h (3 Bft) O-NO 65 0 min 0 W/m 11,7 C 8,1 C 18,8 km/h (3 Bft)
24.09.2008 00:50 13,6 C 89 % 1019,5 hPa 0,0 l/m 16,3 km/h (3 Bft) O-NO 70 0 min 0 W/m 11,8 C 9,1 C 16,3 km/h (3 Bft)
24.09.2008 00:55 13,5 C 89 % 1019,5 hPa 0,0 l/m 14,3 km/h (3 Bft) NO 40 0 min 0 W/m 11,7 C 9,6 C 14,3 km/h (3 Bft)
24.09.2008 01:00 13,5 C 89 % 1019,5 hPa 0,0 l/m 16,3 km/h (3 Bft) NO 45 0 min 0 W/m 11,7 C 8,9 C 16,3 km/h (3 Bft)
24.09.2008 01:05 13,5 C 90 % 1019,5 hPa 0,0 l/m 14,8 km/h (3 Bft) O-NO 70 0 min 0 W/m 11,9 C 9,4 C 14,8 km/h (3 Bft)
24.09.2008 01:10 13,4 C 90 % 1019,5 hPa 0,0 l/m 18,5 km/h (3 Bft) NO 50 0 min 0 W/m 11,8 C 8,1 C 18,5 km/h (3 Bft)
24.09.2008 01:15 13,4 C 90 % 1019,5 hPa 0,0 l/m 17,2 km/h (3 Bft) N-NO 15 0 min 0 W/m 11,8 C 8,5 C 17,2 km/h (3 Bft)
24.09.2008 01:20 13,4 C 90 % 1019,5 hPa 0,0 l/m 18,0 km/h (3 Bft) NO 55 0 min 0 W/m 11,8 C 8,3 C 18,0 km/h (3 Bft)
24.09.2008 01:25 13,4 C 90 % 1020,5 hPa 0,0 l/m 18,4 km/h (3 Bft) O 80 0 min 0 W/m 11,8 C 8,1 C 18,4 km/h (3 Bft)
24.09.2008 01:30 13,3 C 91 % 1020,5 hPa 0,0 l/m 18,1 km/h (3 Bft) O 85 0 min 0 W/m 11,9 C 8,1 C 18,1 km/h (3 Bft)
24.09.2008 01:35 13,3 C 91 % 1020,5 hPa 0,0 l/m 12,8 km/h (3 Bft) NO 50 0 min 0 W/m 11,9 C 10,0 C 12,8 km/h (3 Bft)
24.09.2008 01:39 13,2 C 91 % 1019,5 hPa 0,0 l/m 13,5 km/h (3 Bft) NO 50 0 min 0 W/m 11,8 C 9,6 C 13,5 km/h (3 Bft)
24.09.2008 01:45 13,2 C 91 % 1019,5 hPa 0,0 l/m 13,7 km/h (3 Bft) NO 40 0 min 0 W/m 11,8 C 9,5 C 13,7 km/h (3 Bft)
24.09.2008 01:50 13,2 C 91 % 1019,5 hPa 0,0 l/m 20,0 km/h (4 Bft) N 10 0 min 0 W/m 11,8 C 7,4 C 20,0 km/h (4 Bft)
24.09.2008 01:55 13,2 C 91 % 1019,5 hPa 0,0 l/m 12,1 km/h (2 Bft) O 80 0 min 0 W/m 11,8 C 10,2 C 12,1 km/h (2 Bft)
24.09.2008 02:00 13,2 C 91 % 1019,5 hPa 0,0 l/m 12,2 km/h (2 Bft) O-NO 75 0 min 0 W/m 11,8 C 10,1 C 12,2 km/h (2 Bft)
24.09.2008 02:05 13,2 C 91 % 1020,5 hPa 0,0 l/m 12,3 km/h (2 Bft) NO 45 0 min 0 W/m 11,8 C 10,1 C 12,3 km/h (2 Bft)
24.09.2008 02:10 13,2 C 91 % 1020,5 hPa 0,0 l/m 15,1 km/h (3 Bft) O-NO 65 0 min 0 W/m 11,8 C 9,0 C 15,1 km/h (3 Bft)
24.09.2008 02:15 13,2 C 91 % 1020,5 hPa 0,0 l/m 13,0 km/h (3 Bft) O-NO 75 0 min 0 W/m 11,8 C 9,8 C 13,0 km/h (3 Bft)
24.09.2008 02:20 13,1 C 91 % 1020,5 hPa 0,0 l/m 13,5 km/h (3 Bft) O-NO 70 0 min 0 W/m 11,7 C 9,5 C 13,5 km/h (3 Bft)
24.09.2008 02:25 13,1 C 91 % 1020,5 hPa 0,0 l/m 15,1 km/h (3 Bft) O 95 0 min 0 W/m 11,7 C 8,9 C 15,1 km/h (3 Bft)
24.09.2008 02:30 13,1 C 91 % 1020,5 hPa 0,0 l/m 6,2 km/h (2 Bft) O 90 0 min 0 W/m 11,7 C 13,1 C 6,2 km/h (2 Bft)
24.09.2008 02:35 13,0 C 91 % 1020,5 hPa 0,0 l/m 13,7 km/h (3 Bft) O-SO 120 0 min 0 W/m 11,6 C 9,3 C 13,7 km/h (3 Bft)
24.09.2008 02:40 12,9 C 90 % 1020,5 hPa 0,0 l/m 16,7 km/h (3 Bft) O-SO 110 0 min 0 W/m 11,3 C 8,1 C 16,7 km/h (3 Bft)
24.09.2008 02:45 12,9 C 90 % 1020,5 hPa 0,0 l/m 14,8 km/h (3 Bft) O 95 0 min 0 W/m 11,3 C 8,7 C 14,8 km/h (3 Bft)
24.09.2008 02:50 12,8 C 89 % 1020,5 hPa 0,0 l/m 16,6 km/h (3 Bft) O-SO 115 0 min 0 W/m 11,0 C 8,0 C 16,6 km/h (3 Bft)
24.09.2008 02:55 12,8 C 88 % 1020,5 hPa 0,0 l/m 14,2 km/h (3 Bft) SO 140 0 min 0 W/m 10,9 C 8,8 C 14,2 km/h (3 Bft)
24.09.2008 03:00 12,8 C 88 % 1020,5 hPa 0,0 l/m 16,5 km/h (3 Bft) O-SO 110 0 min 0 W/m 10,9 C 8,0 C 16,5 km/h (3 Bft)
24.09.2008 03:05 12,8 C 88 % 1020,5 hPa 0,0 l/m 17,1 km/h (3 Bft) SO 135 0 min 0 W/m 10,9 C 7,8 C 17,1 km/h (3 Bft)
24.09.2008 03:10 12,8 C 88 % 1020,5 hPa 0,0 l/m 14,1 km/h (3 Bft) SO 130 0 min 0 W/m 10,9 C 8,9 C 14,1 km/h (3 Bft)
24.09.2008 03:15 12,8 C 88 % 1020,5 hPa 0,0 l/m 15,7 km/h (3 Bft) O-SO 115 0 min 0 W/m 10,9 C 8,3 C 15,7 km/h (3 Bft)
24.09.2008 03:20 12,8 C 88 % 1020,5 hPa 0,0 l/m 11,3 km/h (2 Bft) SO 125 0 min 0 W/m 10,9 C 10,1 C 11,3 km/h (2 Bft)
24.09.2008 03:25 12,8 C 88 % 1020,5 hPa 0,0 l/m 9,4 km/h (2 Bft) O 95 0 min 0 W/m 10,9 C 11,0 C 9,4 km/h (2 Bft)
24.09.2008 03:30 12,8 C 88 % 1020,5 hPa 0,0 l/m 11,7 km/h (2 Bft) SO 130 0 min 0 W/m 10,9 C 9,9 C 11,7 km/h (2 Bft)
24.09.2008 03:35 12,8 C 88 % 1020,5 hPa 0,0 l/m 9,0 km/h (2 Bft) SO 125 0 min 0 W/m 10,9 C 11,2 C 9,0 km/h (2 Bft)
24.09.2008 03:40 12,7 C 88 % 1021,5 hPa 0,0 l/m 10,8 km/h (2 Bft) O-SO 110 0 min 0 W/m 10,8 C 10,2 C 10,8 km/h (2 Bft)
24.09.2008 03:45 12,7 C 88 % 1020,5 hPa 0,0 l/m 8,8 km/h (2 Bft) O-SO 115 0 min 0 W/m 10,8 C 11,2 C 8,8 km/h (2 Bft)
24.09.2008 03:50 12,6 C 88 % 1020,5 hPa 0,0 l/m 6,6 km/h (2 Bft) O-SO 115 0 min 0 W/m 10,7 C 12,5 C 6,6 km/h (2 Bft)
24.09.2008 03:55 12,6 C 89 % 1021,5 hPa 0,0 l/m 8,4 km/h (2 Bft) O 80 0 min 0 W/m 10,8 C 11,3 C 8,4 km/h (2 Bft)
24.09.2008 04:00 12,6 C 89 % 1021,5 hPa 0,0 l/m 9,0 km/h (2 Bft) O 95 0 min 0 W/m 10,8 C 11,0 C 9,0 km/h (2 Bft)
24.09.2008 04:05 12,6 C 89 % 1021,5 hPa 0,0 l/m 11,5 km/h (2 Bft) O 80 0 min 0 W/m 10,8 C 9,7 C 11,5 km/h (2 Bft)
24.09.2008 04:10 12,6 C 89 % 1021,5 hPa 0,0 l/m 8,7 km/h (2 Bft) NO 50 0 min 0 W/m 10,8 C 11,2 C 8,7 km/h (2 Bft)
24.09.2008 04:15 12,6 C 89 % 1021,5 hPa 0,0 l/m 8,7 km/h (2 Bft) NO 50 0 min 0 W/m 10,8 C 11,2 C 8,7 km/h (2 Bft)
24.09.2008 04:20 12,6 C 89 % 1021,5 hPa 0,0 l/m 10,1 km/h (2 Bft) O 80 0 min 0 W/m 10,8 C 10,4 C 10,1 km/h (2 Bft)
24.09.2008 04:25 12,5 C 89 % 1021,5 hPa 0,0 l/m 7,8 km/h (2 Bft) O 95 0 min 0 W/m 10,7 C 11,6 C 7,8 km/h (2 Bft)
24.09.2008 04:30 12,5 C 89 % 1021,5 hPa 0,0 l/m 8,5 km/h (2 Bft) NO 50 0 min 0 W/m 10,7 C 11,2 C 8,5 km/h (2 Bft)
24.09.2008 04:35 12,5 C 89 % 1021,5 hPa 0,0 l/m 11,3 km/h (2 Bft) O 95 0 min 0 W/m 10,7 C 9,7 C 11,3 km/h (2 Bft)
24.09.2008 04:40 12,5 C 89 % 1021,5 hPa 0,0 l/m 11,7 km/h (2 Bft) SO 145 0 min 0 W/m 10,7 C 9,5 C 11,7 km/h (2 Bft)
24.09.2008 04:45 12,5 C 90 % 1021,5 hPa 0,0 l/m 13,8 km/h (3 Bft) SO 130 0 min 0 W/m 10,9 C 8,6 C 13,8 km/h (3 Bft)
24.09.2008 04:50 12,7 C 90 % 1021,5 hPa 0,0 l/m 6,3 km/h (2 Bft) O-SO 120 0 min 0 W/m 11,1 C 12,7 C 6,3 km/h (2 Bft)
24.09.2008 04:55 13,1 C 90 % 1021,5 hPa 0,0 l/m 9,2 km/h (2 Bft) O 95 0 min 0 W/m 11,5 C 11,4 C 9,2 km/h (2 Bft)
24.09.2008 05:00 13,2 C 90 % 1021,5 hPa 0,0 l/m 11,9 km/h (2 Bft) O-SO 105 0 min 0 W/m 11,6 C 10,2 C 11,9 km/h (2 Bft)
24.09.2008 05:05 13,4 C 89 % 1021,5 hPa 0,0 l/m 7,4 km/h (2 Bft) O-SO 115 0 min 0 W/m 11,6 C 12,8 C 7,4 km/h (2 Bft)
24.09.2008 05:10 13,5 C 89 % 1021,5 hPa 0,0 l/m 10,3 km/h (2 Bft) O-SO 105 0 min 0 W/m 11,7 C 11,3 C 10,3 km/h (2 Bft)
24.09.2008 05:15 13,4 C 88 % 1021,5 hPa 0,0 l/m 9,4 km/h (2 Bft) O 100 0 min 0 W/m 11,5 C 11,7 C 9,4 km/h (2 Bft)
24.09.2008 05:20 13,4 C 88 % 1021,5 hPa 0,0 l/m 8,5 km/h (2 Bft) O-NO 70 0 min 0 W/m 11,5 C 12,1 C 8,5 km/h (2 Bft)
24.09.2008 05:25 13,4 C 87 % 1021,5 hPa 0,0 l/m 10,4 km/h (2 Bft) O 85 0 min 0 W/m 11,3 C 11,2 C 10,4 km/h (2 Bft)
24.09.2008 05:30 13,4 C 87 % 1021,5 hPa 0,0 l/m 13,0 km/h (3 Bft) O 90 0 min 0 W/m 11,3 C 10,0 C 13,0 km/h (3 Bft)
24.09.2008 05:35 13,5 C 87 % 1021,5 hPa 0,0 l/m 9,5 km/h (2 Bft) O-NO 65 0 min 0 W/m 11,4 C 11,7 C 9,5 km/h (2 Bft)
24.09.2008 05:40 13,5 C 87 % 1021,5 hPa 0,0 l/m 7,2 km/h (2 Bft) O-NO 70 0 min 0 W/m 11,4 C 13,0 C 7,2 km/h (2 Bft)
24.09.2008 05:45 13,4 C 87 % 1021,5 hPa 0,0 l/m 14,6 km/h (3 Bft) O 80 0 min 0 W/m 11,3 C 9,4 C 14,6 km/h (3 Bft)
24.09.2008 05:50 13,5 C 87 % 1021,5 hPa 0,0 l/m 1,9 km/h (1 Bft) NO 50 0 min 0 W/m 11,4 C 13,5 C 1,9 km/h (1 Bft)
24.09.2008 05:55 13,5 C 87 % 1021,5 hPa 0,0 l/m 4,9 km/h (1 Bft) NO 50 0 min 0 W/m 11,4 C 13,5 C 4,9 km/h (1 Bft)
24.09.2008 06:00 13,5 C 87 % 1021,5 hPa 0,0 l/m 6,5 km/h (2 Bft) O 80 0 min 0 W/m 11,4 C 13,5 C 6,5 km/h (2 Bft)
24.09.2008 06:05 13,5 C 87 % 1021,5 hPa 0,0 l/m 9,0 km/h (2 Bft) O 80 0 min 0 W/m 11,4 C 12,0 C 9,0 km/h (2 Bft)
24.09.2008 06:10 13,6 C 87 % 1021,5 hPa 0,0 l/m 7,4 km/h (2 Bft) N-NO 20 0 min 0 W/m 11,5 C 13,0 C 7,4 km/h (2 Bft)
24.09.2008 06:15 13,6 C 87 % 1021,5 hPa 0,0 l/m 11,0 km/h (2 Bft) O 80 0 min 0 W/m 11,5 C 11,1 C 11,0 km/h (2 Bft)
24.09.2008 06:20 13,4 C 86 % 1022,5 hPa 0,0 l/m 9,8 km/h (2 Bft) O-SO 105 0 min 0 W/m 11,1 C 11,5 C 9,8 km/h (2 Bft)
24.09.2008 06:24 13,4 C 86 % 1022,5 hPa 0,0 l/m 2,2 km/h (1 Bft) O-SO 115 0 min 0 W/m 11,1 C 13,4 C 2,2 km/h (1 Bft)
24.09.2008 06:30 13,3 C 86 % 1022,5 hPa 0,0 l/m 12,0 km/h (2 Bft) NO 40 0 min 0 W/m 11,0 C 10,3 C 12,0 km/h (2 Bft)
24.09.2008 06:35 13,2 C 86 % 1022,5 hPa 0,0 l/m 7,9 km/h (2 Bft) O 90 0 min 0 W/m 10,9 C 12,3 C 7,9 km/h (2 Bft)
24.09.2008 06:40 13,1 C 86 % 1022,5 hPa 0,0 l/m 9,2 km/h (2 Bft) O-SO 120 0 min 0 W/m 10,8 C 11,4 C 9,2 km/h (2 Bft)
24.09.2008 06:45 13,1 C 86 % 1022,5 hPa 0,0 l/m 11,2 km/h (2 Bft) O 95 0 min 0 W/m 10,8 C 10,4 C 11,2 km/h (2 Bft)
24.09.2008 06:50 13,1 C 87 % 1022,5 hPa 0,0 l/m 11,4 km/h (2 Bft) O 100 0 min 0 W/m 11,0 C 10,4 C 11,4 km/h (2 Bft)
24.09.2008 06:55 13,1 C 87 % 1022,5 hPa 0,0 l/m 10,0 km/h (2 Bft) O-SO 115 0 min 0 W/m 11,0 C 11,0 C 10,0 km/h (2 Bft)
24.09.2008 07:00 13,1 C 87 % 1022,5 hPa 0,0 l/m 11,4 km/h (2 Bft) O 90 0 min 0 W/m 11,0 C 10,4 C 11,4 km/h (2 Bft)
24.09.2008 07:05 13,2 C 87 % 1022,5 hPa 0,0 l/m 11,6 km/h (2 Bft) O 95 0 min 0 W/m 11,1 C 10,4 C 11,6 km/h (2 Bft)
24.09.2008 07:10 13,1 C 87 % 1022,5 hPa 0,0 l/m 8,9 km/h (2 Bft) O-SO 120 0 min 0 W/m 11,0 C 11,6 C 8,9 km/h (2 Bft)
24.09.2008 07:15 13,1 C 87 % 1022,5 hPa 0,0 l/m 10,2 km/h (2 Bft) O 85 0 min 0 W/m 11,0 C 10,9 C 10,2 km/h (2 Bft)
24.09.2008 07:20 13,2 C 87 % 1022,5 hPa 0,0 l/m 10,9 km/h (2 Bft) O 85 0 min 0 W/m 11,1 C 10,7 C 10,9 km/h (2 Bft)
24.09.2008 07:25 13,3 C 87 % 1022,5 hPa 0,0 l/m 6,7 km/h (2 Bft) O-SO 120 0 min 0 W/m 11,2 C 13,1 C 6,7 km/h (2 Bft)
24.09.2008 07:30 13,3 C 87 % 1022,5 hPa 0,0 l/m 10,3 km/h (2 Bft) SO 140 0 min 0 W/m 11,2 C 11,1 C 10,3 km/h (2 Bft)
24.09.2008 07:35 13,4 C 87 % 1022,5 hPa 0,0 l/m 14,5 km/h (3 Bft) O 85 0 min 0 W/m 11,3 C 9,4 C 14,5 km/h (3 Bft)
24.09.2008 07:40 13,4 C 87 % 1022,5 hPa 0,0 l/m 8,1 km/h (2 Bft) O 90 0 min 0 W/m 11,3 C 12,4 C 8,1 km/h (2 Bft)
24.09.2008 07:45 13,6 C 87 % 1022,5 hPa 0,0 l/m 10,0 km/h (2 Bft) O 90 0 min 0 W/m 11,5 C 11,6 C 10,0 km/h (2 Bft)
24.09.2008 07:50 13,5 C 87 % 1023,5 hPa 0,0 l/m 9,7 km/h (2 Bft) O-NO 60 0 min 0 W/m 11,4 C 11,6 C 9,7 km/h (2 Bft)
24.09.2008 07:55 13,5 C 87 % 1023,5 hPa 0,0 l/m 9,2 km/h (2 Bft) O 80 0 min 0 W/m 11,4 C 11,9 C 9,2 km/h (2 Bft)
24.09.2008 08:00 13,6 C 87 % 1023,5 hPa 0,0 l/m 5,1 km/h (1 Bft) O-NO 65 0 min 0 W/m 11,5 C 13,6 C 5,1 km/h (1 Bft)
24.09.2008 08:05 13,6 C 87 % 1023,5 hPa 0,0 l/m 6,0 km/h (2 Bft) NO 45 0 min 0 W/m 11,5 C 13,6 C 6,0 km/h (2 Bft)
24.09.2008 08:10 13,6 C 87 % 1023,5 hPa 0,0 l/m 11,8 km/h (2 Bft) O-NO 65 0 min 0 W/m 11,5 C 10,7 C 11,8 km/h (2 Bft)
24.09.2008 08:15 13,7 C 87 % 1023,5 hPa 0,0 l/m 9,4 km/h (2 Bft) N-NO 30 0 min 0 W/m 11,6 C 12,0 C 9,4 km/h (2 Bft)
24.09.2008 08:20 13,7 C 87 % 1023,5 hPa 0,0 l/m 5,0 km/h (1 Bft) NW 325 0 min 0 W/m 11,6 C 13,7 C 5,0 km/h (1 Bft)
24.09.2008 08:25 13,7 C 87 % 1023,5 hPa 0,0 l/m 9,6 km/h (2 Bft) O 100 0 min 0 W/m 11,6 C 11,9 C 9,6 km/h (2 Bft)
24.09.2008 08:30 13,8 C 87 % 1023,5 hPa 0,0 l/m 7,9 km/h (2 Bft) O 80 0 min 0 W/m 11,7 C 12,9 C 7,9 km/h (2 Bft)
24.09.2008 08:35 13,8 C 86 % 1023,5 hPa 0,0 l/m 12,1 km/h (2 Bft) O-NO 65 0 min 0 W/m 11,5 C 10,8 C 12,1 km/h (2 Bft)
24.09.2008 08:40 13,8 C 87 % 1023,5 hPa 0,0 l/m 5,9 km/h (2 Bft) O-SO 110 0 min 0 W/m 11,7 C 13,8 C 5,9 km/h (2 Bft)
24.09.2008 08:44 13,8 C 86 % 1023,5 hPa 0,0 l/m 11,3 km/h (2 Bft) O 90 0 min 0 W/m 11,5 C 11,2 C 11,3 km/h (2 Bft)
24.09.2008 08:50 13,9 C 87 % 1023,5 hPa 0,0 l/m 10,4 km/h (2 Bft) O-NO 60 0 min 0 W/m 11,8 C 11,7 C 10,4 km/h (2 Bft)
24.09.2008 08:55 13,9 C 87 % 1023,5 hPa 0,0 l/m 11,3 km/h (2 Bft) O 80 0 min 0 W/m 11,8 C 11,3 C 11,3 km/h (2 Bft)
24.09.2008 09:00 14,0 C 87 % 1023,5 hPa 0,0 l/m 10,3 km/h (2 Bft) O-SO 110 0 min 0 W/m 11,9 C 11,9 C 10,3 km/h (2 Bft)
24.09.2008 09:05 14,0 C 86 % 1023,5 hPa 0,0 l/m 9,4 km/h (2 Bft) O-SO 115 0 min 0 W/m 11,7 C 12,3 C 9,4 km/h (2 Bft)
24.09.2008 09:10 14,1 C 86 % 1023,5 hPa 0,0 l/m 7,2 km/h (2 Bft) O 95 0 min 0 W/m 11,8 C 13,6 C 7,2 km/h (2 Bft)
24.09.2008 09:15 14,2 C 86 % 1023,5 hPa 0,0 l/m 14,1 km/h (3 Bft) O-NO 70 0 min 0 W/m 11,9 C 10,5 C 14,1 km/h (3 Bft)
24.09.2008 09:20 14,3 C 85 % 1023,5 hPa 0,0 l/m 12,1 km/h (2 Bft) O-SO 105 0 min 0 W/m 11,8 C 11,4 C 12,1 km/h (2 Bft)
24.09.2008 09:25 14,3 C 85 % 1023,5 hPa 0,0 l/m 13,0 km/h (3 Bft) O 100 0 min 0 W/m 11,8 C 11,1 C 13,0 km/h (3 Bft)
24.09.2008 09:30 14,3 C 85 % 1023,5 hPa 0,0 l/m 13,1 km/h (3 Bft) O-NO 75 0 min 0 W/m 11,8 C 11,0 C 13,1 km/h (3 Bft)
24.09.2008 09:35 14,5 C 85 % 1024,5 hPa 0,0 l/m 9,3 km/h (2 Bft) NO 50 0 min 0 W/m 12,0 C 12,9 C 9,3 km/h (2 Bft)
24.09.2008 09:40 14,6 C 84 % 1024,5 hPa 0,0 l/m 12,8 km/h (3 Bft) O 80 0 min 0 W/m 11,9 C 11,5 C 12,8 km/h (3 Bft)
24.09.2008 09:45 14,6 C 84 % 1024,5 hPa 0,0 l/m 13,7 km/h (3 Bft) O-NO 65 0 min 0 W/m 11,9 C 11,2 C 13,7 km/h (3 Bft)
24.09.2008 09:50 14,8 C 84 % 1024,5 hPa 0,0 l/m 10,5 km/h (2 Bft) O-NO 75 0 min 0 W/m 12,1 C 12,7 C 10,5 km/h (2 Bft)
24.09.2008 09:55 15,0 C 83 % 1024,5 hPa 0,0 l/m 12,2 km/h (2 Bft) O 90 0 min 0 W/m 12,1 C 12,2 C 12,2 km/h (2 Bft)
24.09.2008 10:00 15,0 C 83 % 1024,5 hPa 0,0 l/m 12,4 km/h (2 Bft) O 85 0 min 0 W/m 12,1 C 12,1 C 12,4 km/h (2 Bft)
24.09.2008 10:05 15,0 C 82 % 1024,5 hPa 0,0 l/m 12,0 km/h (2 Bft) O 100 0 min 0 W/m 12,0 C 12,3 C 12,0 km/h (2 Bft)
24.09.2008 10:10 15,3 C 82 % 1024,5 hPa 0,0 l/m 10,8 km/h (2 Bft) NO 40 0 min 0 W/m 12,2 C 13,1 C 10,8 km/h (2 Bft)
24.09.2008 10:14 15,5 C 82 % 1024,5 hPa 0,0 l/m 13,1 km/h (3 Bft) O 100 0 min 0 W/m 12,4 C 12,4 C 13,1 km/h (3 Bft)
24.09.2008 10:20 15,5 C 81 % 1024,5 hPa 0,0 l/m 14,3 km/h (3 Bft) O 95 0 min 0 W/m 12,3 C 12,0 C 14,3 km/h (3 Bft)
24.09.2008 10:25 15,8 C 80 % 1024,5 hPa 0,0 l/m 21,6 km/h (4 Bft) O-NO 75 0 min 0 W/m 12,4 C 10,4 C 21,6 km/h (4 Bft)
24.09.2008 10:30 15,9 C 80 % 1024,5 hPa 0,0 l/m 17,6 km/h (3 Bft) O-SO 105 0 min 0 W/m 12,5 C 11,5 C 17,6 km/h (3 Bft)
24.09.2008 10:35 16,0 C 78 % 1024,5 hPa 0,0 l/m 15,1 km/h (3 Bft) O-SO 105 0 min 0 W/m 12,2 C 12,4 C 15,1 km/h (3 Bft)
24.09.2008 10:40 16,1 C 78 % 1024,5 hPa 0,0 l/m 17,1 km/h (3 Bft) O-NO 65 0 min 0 W/m 12,3 C 11,9 C 17,1 km/h (3 Bft)
24.09.2008 10:45 16,2 C 78 % 1024,5 hPa 0,0 l/m 15,1 km/h (3 Bft) O-SO 105 0 min 0 W/m 12,4 C 12,6 C 15,1 km/h (3 Bft)
24.09.2008 10:50 16,3 C 77 % 1024,5 hPa 0,0 l/m 16,0 km/h (3 Bft) O-SO 115 0 min 0 W/m 12,3 C 12,5 C 16,0 km/h (3 Bft)
24.09.2008 10:55 16,4 C 76 % 1024,5 hPa 0,0 l/m 15,4 km/h (3 Bft) O-NO 75 0 min 0 W/m 12,2 C 12,8 C 15,4 km/h (3 Bft)
24.09.2008 11:00 16,7 C 76 % 1024,5 hPa 0,0 l/m 17,0 km/h (3 Bft) O-NO 75 0 min 0 W/m 12,4 C 12,7 C 17,0 km/h (3 Bft)
24.09.2008 11:05 16,9 C 76 % 1024,5 hPa 0,0 l/m 12,6 km/h (3 Bft) O-SO 120 0 min 0 W/m 12,6 C 14,3 C 12,6 km/h (3 Bft)
24.09.2008 11:10 16,8 C 74 % 1024,5 hPa 0,0 l/m 13,5 km/h (3 Bft) O-NO 75 0 min 0 W/m 12,1 C 13,8 C 13,5 km/h (3 Bft)
24.09.2008 11:15 16,8 C 75 % 1024,5 hPa 0,0 l/m 12,5 km/h (2 Bft) S-SO 150 0 min 0 W/m 12,3 C 14,2 C 12,5 km/h (2 Bft)
24.09.2008 11:20 16,8 C 75 % 1024,5 hPa 0,0 l/m 13,4 km/h (3 Bft) S-SO 150 0 min 0 W/m 12,3 C 13,9 C 13,4 km/h (3 Bft)
24.09.2008 11:25 17,1 C 74 % 1024,5 hPa 0,0 l/m 19,4 km/h (3 Bft) O 95 0 min 0 W/m 12,4 C 12,6 C 19,4 km/h (3 Bft)
24.09.2008 11:30 16,9 C 72 % 1024,5 hPa 0,0 l/m 23,2 km/h (4 Bft) O-NO 75 0 min 0 W/m 11,8 C 11,5 C 23,2 km/h (4 Bft)
24.09.2008 11:35 16,5 C 73 % 1024,5 hPa 0,0 l/m 19,5 km/h (3 Bft) O 80 0 min 0 W/m 11,6 C 11,8 C 19,5 km/h (3 Bft)
24.09.2008 11:40 16,5 C 73 % 1024,5 hPa 0,0 l/m 14,5 km/h (3 Bft) SO 130 0 min 0 W/m 11,6 C 13,2 C 14,5 km/h (3 Bft)
24.09.2008 11:45 16,8 C 74 % 1024,5 hPa 0,0 l/m 15,2 km/h (3 Bft) O-SO 110 0 min 0 W/m 12,1 C 13,3 C 15,2 km/h (3 Bft)
24.09.2008 11:50 17,2 C 73 % 1024,5 hPa 0,0 l/m 15,1 km/h (3 Bft) O-SO 105 0 min 0 W/m 12,3 C 13,8 C 15,1 km/h (3 Bft)
24.09.2008 11:55 17,2 C 73 % 1024,5 hPa 0,0 l/m 16,7 km/h (3 Bft) O-NO 70 0 min 0 W/m 12,3 C 13,4 C 16,7 km/h (3 Bft)
24.09.2008 12:00 17,6 C 73 % 1024,5 hPa 0,0 l/m 20,1 km/h (4 Bft) O 80 0 min 0 W/m 12,7 C 13,1 C 20,1 km/h (4 Bft)
24.09.2008 12:05 17,4 C 71 % 1024,5 hPa 0,0 l/m 16,3 km/h (3 Bft) O-SO 105 0 min 0 W/m 12,1 C 13,7 C 16,3 km/h (3 Bft)
24.09.2008 12:10 17,2 C 70 % 1024,5 hPa 0,0 l/m 16,1 km/h (3 Bft) O 100 0 min 0 W/m 11,7 C 13,5 C 16,1 km/h (3 Bft)
24.09.2008 12:15 17,2 C 72 % 1024,5 hPa 0,0 l/m 13,7 km/h (3 Bft) O 95 0 min 0 W/m 12,1 C 14,2 C 13,7 km/h (3 Bft)
24.09.2008 12:20 17,2 C 71 % 1024,5 hPa 0,0 l/m 20,6 km/h (4 Bft) O-SO 120 0 min 0 W/m 11,9 C 12,5 C 20,6 km/h (4 Bft)
24.09.2008 12:25 17,4 C 71 % 1024,5 hPa 0,0 l/m 18,8 km/h (3 Bft) O 85 0 min 0 W/m 12,1 C 13,1 C 18,8 km/h (3 Bft)
24.09.2008 12:30 17,6 C 70 % 1024,5 hPa 0,0 l/m 15,8 km/h (3 Bft) O-SO 105 0 min 0 W/m 12,1 C 14,1 C 15,8 km/h (3 Bft)
24.09.2008 12:35 17,6 C 69 % 1024,5 hPa 0,0 l/m 12,5 km/h (2 Bft) O-SO 115 0 min 0 W/m 11,8 C 15,1 C 12,5 km/h (2 Bft)
24.09.2008 12:40 17,5 C 69 % 1024,5 hPa 0,0 l/m 12,8 km/h (3 Bft) O 100 0 min 0 W/m 11,7 C 14,9 C 12,8 km/h (3 Bft)
24.09.2008 12:45 17,4 C 69 % 1024,5 hPa 0,0 l/m 21,0 km/h (4 Bft) O-SO 120 0 min 0 W/m 11,7 C 12,6 C 21,0 km/h (4 Bft)
24.09.2008 12:50 17,5 C 70 % 1025,5 hPa 0,0 l/m 16,6 km/h (3 Bft) O 100 0 min 0 W/m 12,0 C 13,8 C 16,6 km/h (3 Bft)
24.09.2008 12:55 17,6 C 70 % 1024,5 hPa 0,0 l/m 15,8 km/h (3 Bft) O-SO 115 0 min 0 W/m 12,1 C 14,1 C 15,8 km/h (3 Bft)
24.09.2008 13:00 17,6 C 69 % 1025,5 hPa 0,0 l/m 16,0 km/h (3 Bft) O-SO 115 0 min 0 W/m 11,8 C 14,1 C 16,0 km/h (3 Bft)
24.09.2008 13:05 17,6 C 68 % 1025,5 hPa 0,0 l/m 21,6 km/h (4 Bft) O 80 0 min 0 W/m 11,6 C 12,8 C 21,6 km/h (4 Bft)
24.09.2008 13:10 17,5 C 68 % 1025,5 hPa 0,0 l/m 15,8 km/h (3 Bft) O 95 0 min 0 W/m 11,5 C 14,0 C 15,8 km/h (3 Bft)
24.09.2008 13:15 17,4 C 68 % 1025,5 hPa 0,0 l/m 14,5 km/h (3 Bft) O 100 0 min 0 W/m 11,4 C 14,2 C 14,5 km/h (3 Bft)
24.09.2008 13:20 17,5 C 69 % 1025,5 hPa 0,0 l/m 18,1 km/h (3 Bft) O-SO 120 0 min 0 W/m 11,7 C 13,4 C 18,1 km/h (3 Bft)
24.09.2008 13:25 17,5 C 69 % 1025,5 hPa 0,0 l/m 8,1 km/h (2 Bft) O-SO 105 0 min 0 W/m 11,7 C 16,7 C 8,1 km/h (2 Bft)
24.09.2008 13:30 17,6 C 69 % 1025,5 hPa 0,0 l/m 12,0 km/h (2 Bft) O 80 0 min 0 W/m 11,8 C 15,3 C 12,0 km/h (2 Bft)
24.09.2008 13:35 17,9 C 70 % 1025,5 hPa 0,0 l/m 8,9 km/h (2 Bft) O-SO 115 0 min 0 W/m 12,3 C 16,8 C 8,9 km/h (2 Bft)
24.09.2008 13:40 18,6 C 69 % 1025,5 hPa 0,0 l/m 12,0 km/h (2 Bft) O-SO 110 0 min 0 W/m 12,8 C 16,4 C 12,0 km/h (2 Bft)
24.09.2008 13:45 18,8 C 66 % 1025,5 hPa 0,0 l/m 12,3 km/h (2 Bft) O-NO 60 0 min 0 W/m 12,3 C 16,6 C 12,3 km/h (2 Bft)
24.09.2008 13:50 19,0 C 67 % 1025,5 hPa 0,0 l/m 20,5 km/h (4 Bft) N-NO 30 0 min 0 W/m 12,7 C 14,8 C 20,5 km/h (4 Bft)
24.09.2008 13:55 19,0 C 66 % 1025,5 hPa 0,0 l/m 14,9 km/h (3 Bft) O-NO 70 0 min 0 W/m 12,5 C 16,1 C 14,9 km/h (3 Bft)
24.09.2008 14:00 19,0 C 66 % 1025,5 hPa 0,0 l/m 12,9 km/h (3 Bft) O-NO 60 0 min 0 W/m 12,5 C 16,6 C 12,9 km/h (3 Bft)
24.09.2008 14:05 18,9 C 65 % 1025,5 hPa 0,0 l/m 16,0 km/h (3 Bft) O-NO 70 0 min 0 W/m 12,2 C 15,7 C 16,0 km/h (3 Bft)
24.09.2008 14:10 18,8 C 65 % 1025,5 hPa 0,0 l/m 19,0 km/h (3 Bft) O 80 0 min 0 W/m 12,1 C 14,9 C 19,0 km/h (3 Bft)
24.09.2008 14:15 19,0 C 64 % 1025,5 hPa 0,0 l/m 12,4 km/h (2 Bft) O 90 0 min 0 W/m 12,0 C 16,8 C 12,4 km/h (2 Bft)
24.09.2008 14:20 18,9 C 63 % 1025,5 hPa 0,0 l/m 19,6 km/h (3 Bft) O-SO 105 0 min 0 W/m 11,7 C 14,9 C 19,6 km/h (3 Bft)
24.09.2008 14:25 18,4 C 64 % 1025,5 hPa 0,0 l/m 12,8 km/h (3 Bft) O 90 0 min 0 W/m 11,5 C 15,9 C 12,8 km/h (3 Bft)
24.09.2008 14:30 18,0 C 66 % 1025,5 hPa 0,0 l/m 13,2 km/h (3 Bft) O-NO 60 0 min 0 W/m 11,6 C 15,3 C 13,2 km/h (3 Bft)
24.09.2008 14:34 18,2 C 69 % 1025,5 hPa 0,0 l/m 12,9 km/h (3 Bft) N-NO 30 0 min 0 W/m 12,4 C 15,7 C 12,9 km/h (3 Bft)
24.09.2008 14:40 18,5 C 69 % 1025,5 hPa 0,0 l/m 9,9 km/h (2 Bft) N-NO 25 0 min 0 W/m 12,7 C 17,0 C 9,9 km/h (2 Bft)
24.09.2008 14:45 19,0 C 67 % 1025,5 hPa 0,0 l/m 19,4 km/h (3 Bft) O 80 0 min 0 W/m 12,7 C 15,0 C 19,4 km/h (3 Bft)
24.09.2008 14:50 18,6 C 67 % 1025,5 hPa 0,0 l/m 15,1 km/h (3 Bft) O 95 0 min 0 W/m 12,3 C 15,5 C 15,1 km/h (3 Bft)
24.09.2008 14:55 18,4 C 66 % 1025,5 hPa 0,0 l/m 18,4 km/h (3 Bft) O-NO 75 0 min 0 W/m 11,9 C 14,5 C 18,4 km/h (3 Bft)
24.09.2008 15:00 17,8 C 67 % 1025,5 hPa 0,0 l/m 12,0 km/h (2 Bft) O 85 0 min 0 W/m 11,6 C 15,5 C 12,0 km/h (2 Bft)
24.09.2008 15:05 17,8 C 68 % 1025,5 hPa 0,0 l/m 13,5 km/h (3 Bft) O-NO 70 0 min 0 W/m 11,8 C 15,0 C 13,5 km/h (3 Bft)
24.09.2008 15:10 17,9 C 68 % 1025,5 hPa 0,0 l/m 12,3 km/h (2 Bft) O 80 0 min 0 W/m 11,9 C 15,5 C 12,3 km/h (2 Bft)
24.09.2008 15:15 18,2 C 66 % 1025,5 hPa 0,0 l/m 22,5 km/h (4 Bft) O 100 0 min 0 W/m 11,7 C 13,4 C 22,5 km/h (4 Bft)
24.09.2008 15:20 18,4 C 64 % 1025,5 hPa 0,0 l/m 14,5 km/h (3 Bft) O 95 0 min 0 W/m 11,5 C 15,4 C 14,5 km/h (3 Bft)
24.09.2008 15:25 18,4 C 64 % 1025,5 hPa 0,0 l/m 18,3 km/h (3 Bft) O 85 0 min 0 W/m 11,5 C 14,5 C 18,3 km/h (3 Bft)
24.09.2008 15:30 18,6 C 65 % 1025,5 hPa 0,0 l/m 16,5 km/h (3 Bft) NO 50 0 min 0 W/m 11,9 C 15,2 C 16,5 km/h (3 Bft)
24.09.2008 15:35 18,7 C 64 % 1025,5 hPa 0,0 l/m 21,0 km/h (4 Bft) O 95 0 min 0 W/m 11,7 C 14,3 C 21,0 km/h (4 Bft)
24.09.2008 15:40 18,6 C 63 % 1025,5 hPa 0,0 l/m 14,3 km/h (3 Bft) O-NO 65 0 min 0 W/m 11,4 C 15,7 C 14,3 km/h (3 Bft)
24.09.2008 15:45 18,6 C 63 % 1025,5 hPa 0,0 l/m 12,6 km/h (3 Bft) O 85 0 min 0 W/m 11,4 C 16,2 C 12,6 km/h (3 Bft)
24.09.2008 15:50 18,5 C 61 % 1025,5 hPa 0,0 l/m 13,8 km/h (3 Bft) O 90 0 min 0 W/m 10,8 C 15,8 C 13,8 km/h (3 Bft)
24.09.2008 15:55 18,4 C 61 % 1025,5 hPa 0,0 l/m 17,0 km/h (3 Bft) O 80 0 min 0 W/m 10,7 C 14,8 C 17,0 km/h (3 Bft)
24.09.2008 16:00 18,2 C 61 % 1025,5 hPa 0,0 l/m 17,6 km/h (3 Bft) NO 45 0 min 0 W/m 10,6 C 14,4 C 17,6 km/h (3 Bft)
24.09.2008 16:05 18,2 C 61 % 1025,5 hPa 0,0 l/m 15,8 km/h (3 Bft) O 90 0 min 0 W/m 10,6 C 14,9 C 15,8 km/h (3 Bft)
24.09.2008 16:10 18,2 C 62 % 1025,5 hPa 0,0 l/m 14,6 km/h (3 Bft) O 85 0 min 0 W/m 10,8 C 15,2 C 14,6 km/h (3 Bft)
24.09.2008 16:15 18,1 C 62 % 1025,5 hPa 0,0 l/m 12,5 km/h (2 Bft) O-NO 70 0 min 0 W/m 10,7 C 15,7 C 12,5 km/h (2 Bft)
24.09.2008 16:20 18,0 C 64 % 1025,5 hPa 0,0 l/m 20,1 km/h (4 Bft) NO 55 0 min 0 W/m 11,1 C 13,6 C 20,1 km/h (4 Bft)
24.09.2008 16:25 17,9 C 64 % 1025,5 hPa 0,0 l/m 19,8 km/h (3 Bft) O-NO 60 0 min 0 W/m 11,0 C 13,5 C 19,8 km/h (3 Bft)
24.09.2008 16:30 17,8 C 64 % 1025,5 hPa 0,0 l/m 19,3 km/h (3 Bft) NO 35 0 min 0 W/m 10,9 C 13,5 C 19,3 km/h (3 Bft)
24.09.2008 16:35 17,6 C 65 % 1025,5 hPa 0,0 l/m 14,5 km/h (3 Bft) O-NO 60 0 min 0 W/m 10,9 C 14,5 C 14,5 km/h (3 Bft)
24.09.2008 16:40 17,6 C 65 % 1025,5 hPa 0,0 l/m 15,6 km/h (3 Bft) N-NO 30 0 min 0 W/m 10,9 C 14,2 C 15,6 km/h (3 Bft)
24.09.2008 16:45 17,4 C 67 % 1025,5 hPa 0,0 l/m 18,6 km/h (3 Bft) NO 40 0 min 0 W/m 11,2 C 13,2 C 18,6 km/h (3 Bft)
24.09.2008 16:50 17,4 C 67 % 1025,5 hPa 0,0 l/m 17,1 km/h (3 Bft) NO 45 0 min 0 W/m 11,2 C 13,5 C 17,1 km/h (3 Bft)
24.09.2008 16:55 17,4 C 67 % 1025,5 hPa 0,0 l/m 18,3 km/h (3 Bft) O 80 0 min 0 W/m 11,2 C 13,2 C 18,3 km/h (3 Bft)
24.09.2008 17:00 17,1 C 67 % 1025,5 hPa 0,0 l/m 17,5 km/h (3 Bft) N-NO 25 0 min 0 W/m 10,9 C 13,1 C 17,5 km/h (3 Bft)
24.09.2008 17:05 17,0 C 67 % 1025,5 hPa 0,0 l/m 10,8 km/h (2 Bft) N 10 0 min 0 W/m 10,8 C 15,0 C 10,8 km/h (2 Bft)
24.09.2008 17:10 16,9 C 68 % 1025,5 hPa 0,0 l/m 15,8 km/h (3 Bft) N 360 0 min 0 W/m 11,0 C 13,3 C 15,8 km/h (3 Bft)
24.09.2008 17:15 16,8 C 68 % 1025,5 hPa 0,0 l/m 21,4 km/h (4 Bft) N-NO 15 0 min 0 W/m 10,9 C 11,8 C 21,4 km/h (4 Bft)
24.09.2008 17:20 16,7 C 69 % 1025,5 hPa 0,0 l/m 15,8 km/h (3 Bft) N-NO 15 0 min 0 W/m 11,0 C 13,0 C 15,8 km/h (3 Bft)
24.09.2008 17:26 16,6 C 69 % 1025,5 hPa 0,0 l/m 16,3 km/h (3 Bft) N-NO 25 0 min 0 W/m 10,9 C 12,8 C 16,3 km/h (3 Bft)
24.09.2008 17:30 16,4 C 69 % 1025,5 hPa 0,0 l/m 11,5 km/h (2 Bft) N-NO 25 0 min 0 W/m 10,7 C 14,1 C 11,5 km/h (2 Bft)
24.09.2008 17:35 16,3 C 70 % 1025,5 hPa 0,0 l/m 10,3 km/h (2 Bft) N-NO 30 0 min 0 W/m 10,8 C 14,4 C 10,3 km/h (2 Bft)
24.09.2008 17:40 16,2 C 70 % 1025,5 hPa 0,0 l/m 16,1 km/h (3 Bft) O-NO 60 0 min 0 W/m 10,7 C 12,3 C 16,1 km/h (3 Bft)
24.09.2008 17:45 15,9 C 71 % 1025,5 hPa 0,0 l/m 18,2 km/h (3 Bft) NO 45 0 min 0 W/m 10,6 C 11,4 C 18,2 km/h (3 Bft)
24.09.2008 17:50 15,8 C 71 % 1025,5 hPa 0,0 l/m 15,3 km/h (3 Bft) O-NO 70 0 min 0 W/m 10,6 C 12,1 C 15,3 km/h (3 Bft)
24.09.2008 17:55 15,7 C 71 % 1025,5 hPa 0,0 l/m 14,6 km/h (3 Bft) NO 50 0 min 0 W/m 10,5 C 12,2 C 14,6 km/h (3 Bft)
24.09.2008 18:01 15,6 C 71 % 1025,5 hPa 0,0 l/m 19,1 km/h (3 Bft) O-NO 60 0 min 0 W/m 10,4 C 10,7 C 19,1 km/h (3 Bft)
24.09.2008 18:05 15,4 C 72 % 1025,5 hPa 0,0 l/m 11,4 km/h (2 Bft) NO 35 0 min 0 W/m 10,4 C 13,0 C 11,4 km/h (2 Bft)
24.09.2008 18:10 15,3 C 72 % 1025,5 hPa 0,0 l/m 18,8 km/h (3 Bft) NO 45 0 min 0 W/m 10,3 C 10,4 C 18,8 km/h (3 Bft)
24.09.2008 18:15 15,2 C 73 % 1025,5 hPa 0,0 l/m 12,8 km/h (3 Bft) NO 45 0 min 0 W/m 10,4 C 12,2 C 12,8 km/h (3 Bft)
24.09.2008 18:21 15,0 C 74 % 1025,5 hPa 0,0 l/m 17,0 km/h (3 Bft) O-NO 60 0 min 0 W/m 10,4 C 10,6 C 17,0 km/h (3 Bft)
24.09.2008 18:25 15,0 C 74 % 1025,5 hPa 0,0 l/m 14,3 km/h (3 Bft) NO 55 0 min 0 W/m 10,4 C 11,4 C 14,3 km/h (3 Bft)
24.09.2008 18:30 15,0 C 75 % 1025,5 hPa 0,0 l/m 8,0 km/h (2 Bft) N-NO 15 0 min 0 W/m 10,6 C 14,1 C 8,0 km/h (2 Bft)
24.09.2008 18:35 14,8 C 75 % 1025,5 hPa 0,0 l/m 12,4 km/h (2 Bft) NO 55 0 min 0 W/m 10,4 C 11,9 C 12,4 km/h (2 Bft)
24.09.2008 18:40 14,6 C 76 % 1025,5 hPa 0,0 l/m 12,0 km/h (2 Bft) O 80 0 min 0 W/m 10,4 C 11,8 C 12,0 km/h (2 Bft)
24.09.2008 18:45 14,5 C 76 % 1025,5 hPa 0,0 l/m 12,5 km/h (2 Bft) SO 140 0 min 0 W/m 10,3 C 11,5 C 12,5 km/h (2 Bft)
24.09.2008 18:50 14,4 C 77 % 1025,5 hPa 0,0 l/m 11,7 km/h (2 Bft) NO 45 0 min 0 W/m 10,4 C 11,7 C 11,7 km/h (2 Bft)
24.09.2008 18:55 14,2 C 78 % 1026,5 hPa 0,0 l/m 16,1 km/h (3 Bft) O-NO 70 0 min 0 W/m 10,4 C 9,9 C 16,1 km/h (3 Bft)
24.09.2008 19:01 14,2 C 78 % 1026,5 hPa 0,0 l/m 21,7 km/h (4 Bft) NO 50 0 min 0 W/m 10,4 C 8,3 C 21,7 km/h (4 Bft)
24.09.2008 19:05 14,0 C 78 % 1026,5 hPa 0,0 l/m 10,1 km/h (2 Bft) NO 55 0 min 0 W/m 10,2 C 12,0 C 10,1 km/h (2 Bft)
24.09.2008 19:10 13,9 C 79 % 1026,5 hPa 0,0 l/m 13,6 km/h (3 Bft) O 80 0 min 0 W/m 10,3 C 10,4 C 13,6 km/h (3 Bft)
24.09.2008 19:15 13,8 C 79 % 1026,5 hPa 0,0 l/m 13,1 km/h (3 Bft) O-NO 60 0 min 0 W/m 10,2 C 10,4 C 13,1 km/h (3 Bft)
24.09.2008 19:20 13,6 C 79 % 1026,5 hPa 0,0 l/m 11,1 km/h (2 Bft) N-NO 20 0 min 0 W/m 10,0 C 11,1 C 11,1 km/h (2 Bft)
24.09.2008 19:25 13,6 C 80 % 1026,5 hPa 0,0 l/m 12,7 km/h (3 Bft) NO 55 0 min 0 W/m 10,2 C 10,4 C 12,7 km/h (3 Bft)
24.09.2008 19:30 13,4 C 80 % 1026,5 hPa 0,0 l/m 8,7 km/h (2 Bft) N 5 0 min 0 W/m 10,0 C 12,0 C 8,7 km/h (2 Bft)
24.09.2008 19:35 13,4 C 81 % 1026,5 hPa 0,0 l/m 10,5 km/h (2 Bft) N-NO 15 0 min 0 W/m 10,2 C 11,1 C 10,5 km/h (2 Bft)
24.09.2008 19:40 13,2 C 81 % 1026,5 hPa 0,0 l/m 5,6 km/h (2 Bft) NW 305 0 min 0 W/m 10,0 C 13,2 C 5,6 km/h (2 Bft)
24.09.2008 19:45 13,2 C 81 % 1026,5 hPa 0,0 l/m 8,7 km/h (2 Bft) NW 325 0 min 0 W/m 10,0 C 11,8 C 8,7 km/h (2 Bft)
24.09.2008 19:50 13,2 C 82 % 1026,5 hPa 0,0 l/m 17,0 km/h (3 Bft) O-NO 65 0 min 0 W/m 10,2 C 8,3 C 17,0 km/h (3 Bft)
24.09.2008 19:55 13,1 C 83 % 1026,5 hPa 0,0 l/m 12,0 km/h (2 Bft) NO 40 0 min 0 W/m 10,3 C 10,1 C 12,0 km/h (2 Bft)
24.09.2008 20:00 13,0 C 83 % 1026,5 hPa 0,0 l/m 13,0 km/h (3 Bft) O-NO 75 0 min 0 W/m 10,2 C 9,5 C 13,0 km/h (3 Bft)
24.09.2008 20:05 12,9 C 83 % 1026,5 hPa 0,0 l/m 6,5 km/h (2 Bft) O-NO 65 0 min 0 W/m 10,1 C 12,9 C 6,5 km/h (2 Bft)
24.09.2008 20:11 12,9 C 84 % 1026,5 hPa 0,0 l/m 13,8 km/h (3 Bft) O 90 0 min 0 W/m 10,3 C 9,1 C 13,8 km/h (3 Bft)
24.09.2008 20:15 12,8 C 84 % 1027,5 hPa 0,0 l/m 2,5 km/h (1 Bft) SO 130 0 min 0 W/m 10,2 C 12,8 C 2,5 km/h (1 Bft)
24.09.2008 20:20 12,8 C 84 % 1027,5 hPa 0,0 l/m 12,3 km/h (2 Bft) O-NO 60 0 min 0 W/m 10,2 C 9,6 C 12,3 km/h (2 Bft)
24.09.2008 20:25 12,7 C 84 % 1027,5 hPa 0,0 l/m 12,4 km/h (2 Bft) O 85 0 min 0 W/m 10,1 C 9,4 C 12,4 km/h (2 Bft)
24.09.2008 20:30 12,6 C 84 % 1027,5 hPa 0,0 l/m 19,6 km/h (3 Bft) NO 40 0 min 0 W/m 10,0 C 6,8 C 19,6 km/h (3 Bft)
24.09.2008 20:35 12,5 C 84 % 1027,5 hPa 0,0 l/m 20,8 km/h (4 Bft) O 95 0 min 0 W/m 9,9 C 6,3 C 20,8 km/h (4 Bft)
24.09.2008 20:40 12,5 C 84 % 1027,5 hPa 0,0 l/m 20,8 km/h (4 Bft) O 95 0 min 0 W/m 9,9 C 6,3 C 20,8 km/h (4 Bft)
24.09.2008 20:46 12,4 C 84 % 1027,5 hPa 0,0 l/m 14,5 km/h (3 Bft) O 85 0 min 0 W/m 9,8 C 8,2 C 14,5 km/h (3 Bft)
24.09.2008 20:50 12,3 C 84 % 1027,5 hPa 0,0 l/m 15,3 km/h (3 Bft) O-NO 65 0 min 0 W/m 9,7 C 7,8 C 15,3 km/h (3 Bft)
24.09.2008 20:55 12,3 C 84 % 1027,5 hPa 0,0 l/m 17,5 km/h (3 Bft) O-NO 75 0 min 0 W/m 9,7 C 7,0 C 17,5 km/h (3 Bft)
24.09.2008 21:00 12,3 C 83 % 1027,5 hPa 0,0 l/m 12,1 km/h (2 Bft) O-NO 60 0 min 0 W/m 9,5 C 9,1 C 12,1 km/h (2 Bft)
24.09.2008 21:05 12,2 C 83 % 1027,5 hPa 0,0 l/m 11,5 km/h (2 Bft) O 80 0 min 0 W/m 9,4 C 9,3 C 11,5 km/h (2 Bft)
24.09.2008 21:10 12,2 C 83 % 1027,5 hPa 0,0 l/m 12,9 km/h (3 Bft) O-NO 70 0 min 0 W/m 9,4 C 8,6 C 12,9 km/h (3 Bft)
24.09.2008 21:15 12,2 C 83 % 1027,5 hPa 0,0 l/m 16,6 km/h (3 Bft) O 80 0 min 0 W/m 9,4 C 7,2 C 16,6 km/h (3 Bft)
24.09.2008 21:20 12,2 C 83 % 1027,5 hPa 0,0 l/m 14,5 km/h (3 Bft) O 90 0 min 0 W/m 9,4 C 8,0 C 14,5 km/h (3 Bft)
24.09.2008 21:25 12,1 C 83 % 1027,5 hPa 0,0 l/m 12,1 km/h (2 Bft) O 80 0 min 0 W/m 9,3 C 8,9 C 12,1 km/h (2 Bft)
24.09.2008 21:30 12,1 C 83 % 1028,5 hPa 0,0 l/m 13,3 km/h (3 Bft) O-NO 60 0 min 0 W/m 9,3 C 8,4 C 13,3 km/h (3 Bft)
24.09.2008 21:36 12,0 C 83 % 1027,5 hPa 0,0 l/m 11,5 km/h (2 Bft) O 80 0 min 0 W/m 9,2 C 9,1 C 11,5 km/h (2 Bft)
24.09.2008 21:40 11,8 C 83 % 1027,5 hPa 0,0 l/m 9,1 km/h (2 Bft) O 90 0 min 0 W/m 9,0 C 10,1 C 9,1 km/h (2 Bft)
24.09.2008 21:45 11,8 C 83 % 1028,5 hPa 0,0 l/m 13,8 km/h (3 Bft) O-NO 60 0 min 0 W/m 9,0 C 7,8 C 13,8 km/h (3 Bft)
24.09.2008 21:50 11,7 C 84 % 1027,5 hPa 0,0 l/m 6,4 km/h (2 Bft) O-NO 70 0 min 0 W/m 9,1 C 11,7 C 6,4 km/h (2 Bft)
24.09.2008 21:55 11,6 C 84 % 1028,5 hPa 0,0 l/m 12,9 km/h (3 Bft) O 95 0 min 0 W/m 9,0 C 7,9 C 12,9 km/h (3 Bft)
24.09.2008 22:00 11,6 C 84 % 1028,5 hPa 0,0 l/m 6,3 km/h (2 Bft) NO 45 0 min 0 W/m 9,0 C 11,6 C 6,3 km/h (2 Bft)
24.09.2008 22:05 11,5 C 84 % 1028,5 hPa 0,0 l/m 8,8 km/h (2 Bft) O-NO 70 0 min 0 W/m 8,9 C 9,9 C 8,8 km/h (2 Bft)
24.09.2008 22:10 11,5 C 84 % 1028,5 hPa 0,0 l/m 15,2 km/h (3 Bft) O 95 0 min 0 W/m 8,9 C 6,9 C 15,2 km/h (3 Bft)
24.09.2008 22:15 11,4 C 84 % 1028,5 hPa 0,0 l/m 8,6 km/h (2 Bft) O 85 0 min 0 W/m 8,8 C 9,9 C 8,6 km/h (2 Bft)
24.09.2008 22:20 11,4 C 85 % 1028,5 hPa 0,0 l/m 8,3 km/h (2 Bft) NO 40 0 min 0 W/m 9,0 C 10,1 C 8,3 km/h (2 Bft)
24.09.2008 22:25 11,4 C 85 % 1028,5 hPa 0,0 l/m 9,8 km/h (2 Bft) O-NO 75 0 min 0 W/m 9,0 C 9,3 C 9,8 km/h (2 Bft)
24.09.2008 22:30 11,3 C 85 % 1028,5 hPa 0,0 l/m 7,8 km/h (2 Bft) O-SO 105 0 min 0 W/m 8,9 C 10,3 C 7,8 km/h (2 Bft)
24.09.2008 22:35 11,2 C 85 % 1028,5 hPa 0,0 l/m 7,7 km/h (2 Bft) O 95 0 min 0 W/m 8,8 C 10,3 C 7,7 km/h (2 Bft)
24.09.2008 22:40 11,2 C 85 % 1028,5 hPa 0,0 l/m 8,2 km/h (2 Bft) NO 45 0 min 0 W/m 8,8 C 10,0 C 8,2 km/h (2 Bft)
24.09.2008 22:45 11,2 C 86 % 1028,5 hPa 0,0 l/m 15,1 km/h (3 Bft) O 100 0 min 0 W/m 8,9 C 6,5 C 15,1 km/h (3 Bft)
24.09.2008 22:50 11,2 C 86 % 1028,5 hPa 0,0 l/m 11,0 km/h (2 Bft) O-NO 60 0 min 0 W/m 8,9 C 8,4 C 11,0 km/h (2 Bft)
24.09.2008 22:55 11,2 C 86 % 1028,5 hPa 0,0 l/m 9,2 km/h (2 Bft) O-SO 105 0 min 0 W/m 8,9 C 9,4 C 9,2 km/h (2 Bft)
24.09.2008 23:01 11,2 C 86 % 1028,5 hPa 0,0 l/m 7,0 km/h (2 Bft) NO 50 0 min 0 W/m 8,9 C 10,8 C 7,0 km/h (2 Bft)
24.09.2008 23:05 11,2 C 86 % 1028,5 hPa 0,0 l/m 10,1 km/h (2 Bft) O-NO 70 0 min 0 W/m 8,9 C 8,9 C 10,1 km/h (2 Bft)
24.09.2008 23:10 11,2 C 86 % 1028,5 hPa 0,0 l/m 11,0 km/h (2 Bft) N-NO 25 0 min 0 W/m 8,9 C 8,4 C 11,0 km/h (2 Bft)
24.09.2008 23:15 11,2 C 86 % 1028,5 hPa 0,0 l/m 8,5 km/h (2 Bft) O 90 0 min 0 W/m 8,9 C 9,8 C 8,5 km/h (2 Bft)
24.09.2008 23:21 11,1 C 86 % 1028,5 hPa 0,0 l/m 5,0 km/h (1 Bft) O-NO 70 0 min 0 W/m 8,8 C 11,1 C 5,0 km/h (1 Bft)
24.09.2008 23:25 11,1 C 86 % 1028,5 hPa 0,0 l/m 5,7 km/h (2 Bft) O 80 0 min 0 W/m 8,8 C 11,1 C 5,7 km/h (2 Bft)
24.09.2008 23:30 11,0 C 86 % 1028,5 hPa 0,0 l/m 12,0 km/h (2 Bft) O-NO 75 0 min 0 W/m 8,7 C 7,7 C 12,0 km/h (2 Bft)
24.09.2008 23:35 10,9 C 87 % 1028,5 hPa 0,0 l/m 6,2 km/h (2 Bft) NO 40 0 min 0 W/m 8,8 C 10,9 C 6,2 km/h (2 Bft)
24.09.2008 23:40 10,9 C 87 % 1028,5 hPa 0,0 l/m 12,9 km/h (3 Bft) O 90 0 min 0 W/m 8,8 C 7,1 C 12,9 km/h (3 Bft)
24.09.2008 23:45 11,0 C 87 % 1028,5 hPa 0,0 l/m 10,6 km/h (2 Bft) O-NO 75 0 min 0 W/m 8,9 C 8,4 C 10,6 km/h (2 Bft)
24.09.2008 23:51 11,0 C 87 % 1028,5 hPa 0,0 l/m 13,5 km/h (3 Bft) O-NO 60 0 min 0 W/m 8,9 C 7,0 C 13,5 km/h (3 Bft)
24.09.2008 23:55 10,9 C 87 % 1028,5 hPa 0,0 l/m 9,6 km/h (2 Bft) O-SO 110 0 min 0 W/m 8,8 C 8,8 C 9,6 km/h (2 Bft)
_ Min-Zeit 23:35 15:50 00:00 - 05:50 - - - - 23:30 20:35 05:50
Minimum _ 10,9 C 61 % 1019,5 hPa - 1,9 km/h (1 Bft) - - - - 8,7 C 6,3 C 1,9 km/h (1 Bft)
_ Max-Zeit 13:50 01:30 21:30 00:00 11:30 - - 00:00 00:00 13:40 14:40 11:30
Maximum _ 19,0 C 91 % 1028,5 hPa 0,0 l/m 23,2 km/h
O-NO (4 Bft)
- - 0 min 0 W/m 12,8 C 17,0 C 23,2 km/h
O-NO (4 Bft)
Durchschnitt _ 14,5 C 80 % 1024,2 hPa #0,0 l/m 13,0 km/h (3 Bft) O - #0 min. 0 W/m 11,1 C 11,6 C 13,0 km/h (3 Bft)
copyright by Holger Just